
Distance (Route):
Temperature : -21.8°C
Humidity : -1.0%
Pressure : -1.0hPa| Receiver | Date | Latitude | Longitude | Direction | Speed | Altitude | Climb | Temperature | Humidity | Pressure | Voltage | Killtimer | Uptime | BKT | XDATA |
|---|---|---|---|---|---|---|---|---|---|---|---|---|---|---|---|
| DB0ND-19 | 2026-09-04 09:18:41 | 47.13009 | 3.82448 | 84° | 47km/h | 7810m | -3.5m/s | -21.8°C | -1.0% | -1.0hPa | 0V | 00:00:00 | 00:00:00 | 00:00:00 | |
| DB0ND-19 | 2026-09-04 09:18:10 | 47.13006 | 3.82251 | 104° | 64km/h | 7837m | -3.6m/s | -21.9°C | -1.0% | -1.0hPa | 0V | 00:00:00 | 00:00:00 | 00:00:00 | |
| DB0ND-19 | 2026-09-04 09:17:39 | 47.13012 | 3.81577 | 82° | 69km/h | 7948m | -3.7m/s | -22.8°C | -1.0% | -1.0hPa | 0V | 00:00:00 | 00:00:00 | 00:00:00 | |
| DB0ND-19 | 2026-09-04 09:17:08 | 47.13030 | 3.80824 | 93° | 53km/h | 8060m | -3.4m/s | -23.7°C | -1.0% | -1.0hPa | 0V | 00:00:00 | 00:00:00 | 00:00:00 | |
| DB0UT-7 | 2026-09-04 09:16:42 | 47.13026 | 3.80208 | 85° | 66km/h | 8153m | -3.5m/s | 0°C | 0% | 0hPa | 0V | 00:00:00 | 00:00:00 | 00:00:00 | |
| DB0ND-19 | 2026-09-04 09:16:37 | 47.13013 | 3.80051 | 94° | 78km/h | 8170m | -3.6m/s | -24.5°C | -1.0% | -1.0hPa | 0V | 00:00:00 | 00:00:00 | 00:00:00 | |
| DB0ND-19 | 2026-09-04 09:16:06 | 47.13018 | 3.79266 | 78° | 66km/h | 8285m | -3.7m/s | -25.6°C | -1.0% | -1.0hPa | 0V | 00:00:00 | 00:00:00 | 00:00:00 | |
| DB0UT-7 | 2026-09-04 09:15:22 | 47.13036 | 3.78221 | 107° | 69km/h | 8439m | -3.4m/s | 0°C | 0% | 0hPa | 0V | 00:00:00 | 00:00:00 | 00:00:00 | |
| DB0ND-19 | 2026-09-04 09:15:04 | 47.13062 | 3.77776 | 86° | 73km/h | 8505m | -3.4m/s | -26.8°C | -1.0% | -1.0hPa | 0V | 00:00:00 | 00:00:00 | 00:00:00 | |
| DB0ND-19 | 2026-09-04 09:14:33 | 47.13135 | 3.77019 | 104° | 51km/h | 8617m | -3.7m/s | -27.8°C | -1.0% | -1.0hPa | 0V | 00:00:00 | 00:00:00 | 00:00:00 | |
| DB0UT-7 | 2026-09-04 09:13:28 | 47.13222 | 3.75401 | 87° | 78km/h | 8849m | -3.7m/s | 0°C | 0% | 0hPa | 0V | 00:00:00 | 00:00:00 | 00:00:00 | |
| DB0ND-19 | 2026-09-04 09:13:00 | 47.13266 | 3.74625 | 104° | 58km/h | 8949m | -3.8m/s | -29.8°C | -1.0% | -1.0hPa | 0V | 00:00:00 | 00:00:00 | 00:00:00 | |
| DB0UT-7 | 2026-09-04 09:12:13 | 47.13271 | 3.73419 | 99° | 71km/h | 9116m | -3.5m/s | 0°C | 0% | 0hPa | 0V | 00:00:00 | 00:00:00 | 00:00:00 | |
| DB0UT-7 | 2026-09-04 09:11:43 | 47.13222 | 3.72641 | 77° | 73km/h | 9225m | -3.4m/s | 0°C | 0% | 0hPa | 0V | 00:00:00 | 00:00:00 | 00:00:00 | |
| DB0UT-7 | 2026-09-04 09:11:13 | 47.13195 | 3.71833 | 95° | 69km/h | 9341m | -3.4m/s | 0°C | 0% | 0hPa | 0V | 00:00:00 | 00:00:00 | 00:00:00 | |
| DB0UT-7 | 2026-09-04 09:10:42 | 47.13146 | 3.71013 | 92° | 69km/h | 9451m | -3.7m/s | 0°C | 0% | 0hPa | 0V | 00:00:00 | 00:00:00 | 00:00:00 | |
| DB0UT-7 | 2026-09-04 09:10:11 | 47.13110 | 3.70231 | 75° | 71km/h | 9562m | -3.9m/s | 0°C | 0% | 0hPa | 0V | 00:00:00 | 00:00:00 | 00:00:00 | |
| DB0UT-7 | 2026-09-04 09:09:41 | 47.13054 | 3.69421 | 90° | 69km/h | 9684m | -3.7m/s | 0°C | 0% | 0hPa | 0V | 00:00:00 | 00:00:00 | 00:00:00 | |
| DB0UT-7 | 2026-09-04 09:09:11 | 47.12973 | 3.68664 | 86° | 75km/h | 9789m | -3.7m/s | 0°C | 0% | 0hPa | 0V | 00:00:00 | 00:00:00 | 00:00:00 | |
| DB0UT-7 | 2026-09-04 09:08:35 | 47.12877 | 3.67701 | 87° | 73km/h | 9929m | -3.9m/s | 0°C | 0% | 0hPa | 0V | 00:00:00 | 00:00:00 | 00:00:00 | |
| DB0UT-7 | 2026-09-04 09:08:05 | 47.12810 | 3.66903 | 69° | 66km/h | 10047m | -3.9m/s | 0°C | 0% | 0hPa | 0V | 00:00:00 | 00:00:00 | 00:00:00 | |
| DB0ND-19 | 2026-09-04 09:07:49 | 47.12754 | 3.66472 | 86° | 86km/h | 10106m | -3.8m/s | -38.3°C | -1.0% | -1.0hPa | 0V | 00:00:00 | 00:00:00 | 00:00:00 | |
| DB0ND-19 | 2026-09-04 09:07:18 | 47.12676 | 3.65693 | 71° | 77km/h | 10232m | -4.0m/s | -39.3°C | -1.0% | -1.0hPa | 0V | 00:00:00 | 00:00:00 | 00:00:00 | |
| DB0UT-7 | 2026-09-04 09:06:34 | 47.12561 | 3.64667 | 66° | 69km/h | 10403m | -3.9m/s | 0°C | 0% | 0hPa | 0V | 00:00:00 | 00:00:00 | 00:00:00 | |
| DB0ND-19 | 2026-09-04 09:06:16 | 47.12502 | 3.64159 | 94° | 66km/h | 10476m | -3.7m/s | -40.9°C | -1.0% | -1.0hPa | 0V | 00:00:00 | 00:00:00 | 00:00:00 | |
| DB0ND-19 | 2026-09-04 09:05:45 | 47.12398 | 3.63370 | 83° | 86km/h | 10599m | -4.1m/s | -41.8°C | -1.0% | -1.0hPa | 0V | 00:00:00 | 00:00:00 | 00:00:00 | |
| DB0UT-7 | 2026-09-04 09:05:04 | 47.12298 | 3.62346 | 74° | 73km/h | 10762m | -3.8m/s | 0°C | 0% | 0hPa | 0V | 00:00:00 | 00:00:00 | 00:00:00 | |
| DB0ND-19 | 2026-09-04 09:04:43 | 47.12230 | 3.61745 | 70° | 58km/h | 10849m | -3.8m/s | -44.1°C | -1.0% | -1.0hPa | 0V | 00:00:00 | 00:00:00 | 00:00:00 | |
| DB0UT-7 | 2026-09-04 09:03:36 | 47.12046 | 3.59976 | 93° | 73km/h | 11109m | -3.9m/s | 0°C | 0% | 0hPa | 0V | 00:00:00 | 00:00:00 | 00:00:00 | |
| DB0UT-7 | 2026-09-04 09:03:06 | 47.11965 | 3.59174 | 90° | 73km/h | 11227m | -4.0m/s | 0°C | 0% | 0hPa | 0V | 00:00:00 | 00:00:00 | 00:00:00 | |
| DB0UT-7 | 2026-09-04 09:02:35 | 47.11903 | 3.58353 | 78° | 75km/h | 11350m | -3.8m/s | 0°C | 0% | 0hPa | 0V | 00:00:00 | 00:00:00 | 00:00:00 | |
| DB0UT-7 | 2026-09-04 09:02:05 | 47.11851 | 3.57553 | 72° | 75km/h | 11469m | -4.1m/s | 0°C | 0% | 0hPa | 0V | 00:00:00 | 00:00:00 | 00:00:00 | |
| DB0UT-7 | 2026-09-04 09:01:35 | 47.11796 | 3.56726 | 99° | 71km/h | 11590m | -4.1m/s | 0°C | 0% | 0hPa | 0V | 00:00:00 | 00:00:00 | 00:00:00 | |
| DB0UT-7 | 2026-09-04 09:01:05 | 47.11735 | 3.55928 | 89° | 77km/h | 11715m | -4.1m/s | 0°C | 0% | 0hPa | 0V | 00:00:00 | 00:00:00 | 00:00:00 | |
| DB0UT-7 | 2026-09-04 09:00:34 | 47.11678 | 3.55125 | 85° | 75km/h | 11849m | -4.2m/s | 0°C | 0% | 0hPa | 0V | 00:00:00 | 00:00:00 | 00:00:00 | |
| DB0UT-7 | 2026-09-04 09:00:04 | 47.11637 | 3.54331 | 77° | 75km/h | 11973m | -4.0m/s | 0°C | 0% | 0hPa | 0V | 00:00:00 | 00:00:00 | 00:00:00 | |
| DB0UT-7 | 2026-09-04 08:59:34 | 47.11572 | 3.53496 | 95° | 75km/h | 12103m | -4.5m/s | 0°C | 0% | 0hPa | 0V | 00:00:00 | 00:00:00 | 00:00:00 | |
| DB0ND-19 | 2026-09-04 08:59:33 | 47.11579 | 3.53414 | 92° | 60km/h | 12112m | -4.6m/s | -54.6°C | -1.0% | -1.0hPa | 0V | 00:00:00 | 00:00:00 | 00:00:00 | |
| DB0ND-19 | 2026-09-04 08:59:02 | 47.11512 | 3.52556 | 95° | 88km/h | 12246m | -4.5m/s | -55.6°C | -1.0% | -1.0hPa | 0V | 00:00:00 | 00:00:00 | 00:00:00 | |
| DB0UT-7 | 2026-09-04 08:58:45 | 47.11504 | 3.52123 | 78° | 75km/h | 12353m | -4.4m/s | 0°C | 0% | 0hPa | 0V | 00:00:00 | 00:00:00 | 00:00:00 | |
| DB0ND-19 | 2026-09-04 08:58:31 | 47.11471 | 3.51702 | 81° | 95km/h | 12385m | -4.5m/s | -56.8°C | -1.0% | -1.0hPa | 0V | 00:00:00 | 00:00:00 | 00:00:00 | |
| DB0UT-7 | 2026-09-04 08:58:11 | 47.11463 | 3.51164 | 76° | 77km/h | 12475m | -4.4m/s | 0°C | 0% | 0hPa | 0V | 00:00:00 | 00:00:00 | 00:00:00 | |
| DB0ND-19 | 2026-09-04 08:58:00 | 47.11452 | 3.50839 | 71° | 66km/h | 12524m | -4.7m/s | -58.1°C | -1.0% | -1.0hPa | 0V | 00:00:00 | 00:00:00 | 00:00:00 | |
| DB0UT-7 | 2026-09-04 08:57:40 | 47.11435 | 3.50295 | 103° | 71km/h | 12616m | -4.5m/s | 0°C | 0% | 0hPa | 0V | 00:00:00 | 00:00:00 | 00:00:00 | |
| DB0ND-19 | 2026-09-04 08:57:29 | 47.11426 | 3.49969 | 100° | 60km/h | 12666m | -4.6m/s | -59.2°C | -1.0% | -1.0hPa | 0V | 00:00:00 | 00:00:00 | 00:00:00 | |
| DB0UT-7 | 2026-09-04 08:57:10 | 47.11395 | 3.49501 | 87° | 69km/h | 12754m | -4.0m/s | 0°C | 0% | 0hPa | 0V | 00:00:00 | 00:00:00 | 00:00:00 | |
| DB0UT-7 | 2026-09-04 08:56:40 | 47.11372 | 3.48747 | 69° | 73km/h | 12894m | -4.6m/s | 0°C | 0% | 0hPa | 0V | 00:00:00 | 00:00:00 | 00:00:00 | |
| DB0UT-7 | 2026-09-04 08:56:10 | 47.11343 | 3.47943 | 97° | 68km/h | 13026m | -4.7m/s | 0°C | 0% | 0hPa | 0V | 00:00:00 | 00:00:00 | 00:00:00 | |
| DB0UT-7 | 2026-09-04 08:55:40 | 47.11288 | 3.47170 | 93° | 71km/h | 13162m | -4.8m/s | 0°C | 0% | 0hPa | 0V | 00:00:00 | 00:00:00 | 00:00:00 | |
| DB0UT-7 | 2026-09-04 08:55:10 | 47.11232 | 3.46402 | 70° | 75km/h | 13298m | -4.3m/s | 0°C | 0% | 0hPa | 0V | 00:00:00 | 00:00:00 | 00:00:00 | |
| DB0UT-7 | 2026-09-04 08:54:40 | 47.11145 | 3.45593 | 96° | 68km/h | 13423m | -3.5m/s | 0°C | 0% | 0hPa | 0V | 00:00:00 | 00:00:00 | 00:00:00 | |
| DB0UT-7 | 2026-09-04 08:54:10 | 47.11101 | 3.44856 | 71° | 73km/h | 13550m | -4.2m/s | 0°C | 0% | 0hPa | 0V | 00:00:00 | 00:00:00 | 00:00:00 | |
| DB0UT-7 | 2026-09-04 08:53:40 | 47.11011 | 3.44085 | 95° | 75km/h | 13666m | -4.7m/s | 0°C | 0% | 0hPa | 0V | 00:00:00 | 00:00:00 | 00:00:00 | |
| DB0UT-7 | 2026-09-04 08:53:10 | 47.10963 | 3.43273 | 73° | 69km/h | 13797m | -2.7m/s | 0°C | 0% | 0hPa | 0V | 00:00:00 | 00:00:00 | 00:00:00 | |
| DB0UT-7 | 2026-09-04 08:52:40 | 47.10906 | 3.42517 | 89° | 69km/h | 13924m | -3.9m/s | 0°C | 0% | 0hPa | 0V | 00:00:00 | 00:00:00 | 00:00:00 | |
| DB0ND-19 | 2026-09-04 08:52:18 | 47.10871 | 3.41783 | 96° | 77km/h | 14031m | -3.2m/s | -65.4°C | -1.0% | -1.0hPa | 0V | 00:00:00 | 00:00:00 | 00:00:00 | |
| DB0UT-7 | 2026-09-04 08:51:38 | 47.10862 | 3.40977 | 89° | 62km/h | 14163m | -4.3m/s | 0°C | 0% | 0hPa | 0V | 00:00:00 | 00:00:00 | 00:00:00 | |
| DB0UT-7 | 2026-09-04 08:51:08 | 47.10865 | 3.40300 | 90° | 62km/h | 14280m | -4.1m/s | 0°C | 0% | 0hPa | 0V | 00:00:00 | 00:00:00 | 00:00:00 | |
| DB0UT-7 | 2026-09-04 08:50:38 | 47.10821 | 3.39609 | 81° | 69km/h | 14403m | -4.1m/s | 0°C | 0% | 0hPa | 0V | 00:00:00 | 00:00:00 | 00:00:00 | |
| DB0UT-7 | 2026-09-04 08:50:08 | 47.10707 | 3.38860 | 80° | 77km/h | 14529m | -4.5m/s | 0°C | 0% | 0hPa | 0V | 00:00:00 | 00:00:00 | 00:00:00 | |
| DB0UT-7 | 2026-09-04 08:49:38 | 47.10653 | 3.38013 | 100° | 68km/h | 14658m | -4.7m/s | 0°C | 0% | 0hPa | 0V | 00:00:00 | 00:00:00 | 00:00:00 | |
| DB0UT-7 | 2026-09-04 08:49:08 | 47.10688 | 3.37269 | 93° | 64km/h | 14783m | -4.5m/s | 0°C | 0% | 0hPa | 0V | 00:00:00 | 00:00:00 | 00:00:00 | |
| DB0ND-19 | 2026-09-04 08:49:07 | 47.10691 | 3.37196 | 93° | 60km/h | 14791m | -4.2m/s | -63.2°C | -1.0% | -1.0hPa | 0V | 00:00:00 | 00:00:00 | 00:00:00 | |
| DB0UT-7 | 2026-09-04 08:48:38 | 47.10728 | 3.36569 | 92° | 55km/h | 14929m | -4.0m/s | 0°C | 0% | 0hPa | 0V | 00:00:00 | 00:00:00 | 00:00:00 | |
| DB0ND-19 | 2026-09-04 08:48:36 | 47.10730 | 3.36479 | 92° | 58km/h | 14925m | -4.2m/s | -63.0°C | -1.0% | -1.0hPa | 0V | 00:00:00 | 00:00:00 | 00:00:00 | |
| DB0UT-7 | 2026-09-04 08:48:05 | 47.10763 | 3.35876 | 100° | 51km/h | 15056m | -4.0m/s | 0°C | 0% | 0hPa | 0V | 00:00:00 | 00:00:00 | 00:00:00 | |
| DB0UT-7 | 2026-09-04 08:47:35 | 47.10829 | 3.35318 | 95° | 58km/h | 15197m | -4.6m/s | 0°C | 0% | 0hPa | 0V | 00:00:00 | 00:00:00 | 00:00:00 | |
| DB0ND-19 | 2026-09-04 08:47:34 | 47.10834 | 3.35109 | 95° | 53km/h | 15239m | -5.0m/s | -62.1°C | -1.0% | -1.0hPa | 0V | 00:00:00 | 00:00:00 | 00:00:00 | |
| DB0UT-7 | 2026-09-04 08:47:05 | 47.10864 | 3.34674 | 98° | 47km/h | 15340m | -4.7m/s | 0°C | 0% | 0hPa | 0V | 00:00:00 | 00:00:00 | 00:00:00 | |
| DB0ND-19 | 2026-09-04 08:47:03 | 47.10879 | 3.34575 | 104° | 53km/h | 15360m | -4.8m/s | -62.1°C | -1.0% | -1.0hPa | 0V | 00:00:00 | 00:00:00 | 00:00:00 | |
| DB0ND-19 | 2026-09-04 08:46:32 | 47.10953 | 3.33959 | 93° | 33km/h | 15530m | -5.0m/s | -62.4°C | -1.0% | -1.0hPa | 0V | 00:00:00 | 00:00:00 | 00:00:00 | |
| DB0UT-7 | 2026-09-04 08:46:02 | 47.10982 | 3.33606 | 90° | 44km/h | 15647m | -4.8m/s | 0°C | 0% | 0hPa | 0V | 00:00:00 | 00:00:00 | 00:00:00 | |
| DB0UT-7 | 2026-09-04 08:45:32 | 47.11053 | 3.33123 | 107° | 44km/h | 15799m | -5.3m/s | 0°C | 0% | 0hPa | 0V | 00:00:00 | 00:00:00 | 00:00:00 | |
| DB0UT-7 | 2026-09-04 08:45:02 | 47.11108 | 3.32639 | 94° | 46km/h | 15954m | -5.1m/s | 0°C | 0% | 0hPa | 0V | 00:00:00 | 00:00:00 | 00:00:00 | |
| DB0ND-19 | 2026-09-04 08:44:59 | 47.11111 | 3.32500 | 96° | 38km/h | 15996m | -5.3m/s | -61.6°C | -1.0% | -1.0hPa | 0V | 00:00:00 | 00:00:00 | 00:00:00 | |
| DB0UT-7 | 2026-09-04 08:44:32 | 47.11140 | 3.32142 | 97° | 44km/h | 16112m | -5.2m/s | 0°C | 0% | 0hPa | 0V | 00:00:00 | 00:00:00 | 00:00:00 | |
| DB0UT-7 | 2026-09-04 08:43:32 | 47.11169 | 3.31250 | 79° | 42km/h | 16432m | -5.2m/s | 0°C | 0% | 0hPa | 0V | 00:00:00 | 00:00:00 | 00:00:00 | |
| DB0ND-19 | 2026-09-04 08:43:26 | 47.11156 | 3.31120 | 76° | 42km/h | 16475m | -5.5m/s | -60.8°C | -1.0% | -1.0hPa | 0V | 00:00:00 | 00:00:00 | 00:00:00 | |
| DB0UT-7 | 2026-09-04 08:43:01 | 47.11126 | 3.30783 | 85° | 49km/h | 16601m | -5.4m/s | 0°C | 0% | 0hPa | 0V | 00:00:00 | 00:00:00 | 00:00:00 | |
| DB0ND-19 | 2026-09-04 08:42:55 | 47.11123 | 3.30640 | 92° | 47km/h | 16641m | -5.7m/s | -60.9°C | -1.0% | -1.0hPa | 0V | 00:00:00 | 00:00:00 | 00:00:00 | |
| DB0UT-7 | 2026-09-04 08:42:31 | 47.11138 | 3.30241 | 100° | 46km/h | 16769m | -5.6m/s | 0°C | 0% | 0hPa | 0V | 00:00:00 | 00:00:00 | 00:00:00 | |
| DB0ND-19 | 2026-09-04 08:42:24 | 47.11150 | 3.30109 | 94° | 46km/h | 16809m | -5.8m/s | -60.8°C | -1.0% | -1.0hPa | 0V | 00:00:00 | 00:00:00 | 00:00:00 | |
| DB0UT-7 | 2026-09-04 08:42:01 | 47.11192 | 3.29750 | 105° | 47km/h | 16942m | -5.6m/s | 0°C | 0% | 0hPa | 0V | 00:00:00 | 00:00:00 | 00:00:00 | |
| DB0ND-19 | 2026-09-04 08:41:53 | 47.11213 | 3.29599 | 100° | 46km/h | 16988m | -5.8m/s | -61.0°C | -1.0% | -1.0hPa | 0V | 00:00:00 | 00:00:00 | 00:00:00 | |
| DB0UT-7 | 2026-09-04 08:41:31 | 47.11266 | 3.29234 | 105° | 42km/h | 17117m | -5.8m/s | 0°C | 0% | 0hPa | 0V | 00:00:00 | 00:00:00 | 00:00:00 | |
| DB0UT-7 | 2026-09-04 08:41:01 | 47.11352 | 3.28791 | 94° | 35km/h | 17296m | -5.9m/s | 0°C | 0% | 0hPa | 0V | 00:00:00 | 00:00:00 | 00:00:00 | |
| DB0UT-7 | 2026-09-04 08:40:31 | 47.11377 | 3.28412 | 99° | 24km/h | 17478m | -5.9m/s | 0°C | 0% | 0hPa | 0V | 00:00:00 | 00:00:00 | 00:00:00 | |
| DB0UT-7 | 2026-09-04 08:40:01 | 47.11440 | 3.28169 | 143° | 22km/h | 17665m | -6.3m/s | 0°C | 0% | 0hPa | 0V | 00:00:00 | 00:00:00 | 00:00:00 | |
| DB0UT-7 | 2026-09-04 08:39:31 | 47.11392 | 3.28002 | 75° | 31km/h | 17855m | -6.8m/s | 0°C | 0% | 0hPa | 0V | 00:00:00 | 00:00:00 | 00:00:00 | |
| DB0UT-7 | 2026-09-04 08:39:01 | 47.11310 | 3.27704 | 36° | 38km/h | 18052m | -6.8m/s | 0°C | 0% | 0hPa | 0V | 00:00:00 | 00:00:00 | 00:00:00 | |
| DB0UT-7 | 2026-09-04 08:38:31 | 47.11273 | 3.27277 | 113° | 38km/h | 18256m | -6.1m/s | 0°C | 0% | 0hPa | 0V | 00:00:00 | 00:00:00 | 00:00:00 | |
| DB0UT-7 | 2026-09-04 08:38:01 | 47.11334 | 3.26887 | 99° | 35km/h | 18461m | -6.8m/s | 0°C | 0% | 0hPa | 0V | 00:00:00 | 00:00:00 | 00:00:00 | |
| DB0UT-7 | 2026-09-04 08:37:31 | 47.11354 | 3.26514 | 113° | 42km/h | 18670m | -7.7m/s | 0°C | 0% | 0hPa | 0V | 00:00:00 | 00:00:00 | 00:00:00 | |
| DB0ND-19 | 2026-09-04 08:37:14 | 47.11397 | 3.26260 | 100° | 46km/h | 18781m | 3.7m/s | -56.9°C | -1.0% | -1.0hPa | 0V | 00:00:00 | 00:00:00 | 00:00:00 | |
| DB0UT-7 | 2026-09-04 08:37:01 | 47.11418 | 3.26070 | 115° | 37km/h | 18721m | 5.0m/s | 0°C | 0% | 0hPa | 0V | 00:00:00 | 00:00:00 | 00:00:00 | |
| DB0UT-7 | 2026-09-04 08:36:31 | 47.11464 | 3.25676 | 83° | 31km/h | 18584m | 4.8m/s | 0°C | 0% | 0hPa | 0V | 00:00:00 | 00:00:00 | 00:00:00 | |
| DB0UT-7 | 2026-09-04 08:36:01 | 47.11476 | 3.25332 | 106° | 37km/h | 18451m | 5.8m/s | 0°C | 0% | 0hPa | 0V | 00:00:00 | 00:00:00 | 00:00:00 | |
| DB0UT-7 | 2026-09-04 08:35:31 | 47.11535 | 3.24935 | 94° | 46km/h | 18316m | 5.2m/s | 0°C | 0% | 0hPa | 0V | 00:00:00 | 00:00:00 | 00:00:00 | |
| DB0UT-7 | 2026-09-04 08:35:01 | 47.11537 | 3.24444 | 76° | 35km/h | 18180m | 5.6m/s | 0°C | 0% | 0hPa | 0V | 00:00:00 | 00:00:00 | 00:00:00 | |
| DB0UT-7 | 2026-09-04 08:34:31 | 47.11466 | 3.24058 | 74° | 26km/h | 18039m | 4.1m/s | 0°C | 0% | 0hPa | 0V | 00:00:00 | 00:00:00 | 00:00:00 | |
| DB0UT-7 | 2026-09-04 08:34:01 | 47.11412 | 3.23787 | 61° | 16km/h | 17895m | 4.7m/s | 0°C | 0% | 0hPa | 0V | 00:00:00 | 00:00:00 | 00:00:00 | |
| DB0UT-7 | 2026-09-04 08:33:31 | 47.11336 | 3.23650 | 72° | 13km/h | 17751m | 5.4m/s | 0°C | 0% | 0hPa | 0V | 00:00:00 | 00:00:00 | 00:00:00 | |
| DB0UT-7 | 2026-09-04 08:33:02 | 47.11369 | 3.23508 | 127° | 26km/h | 17612m | 5.1m/s | 0°C | 0% | 0hPa | 0V | 00:00:00 | 00:00:00 | 00:00:00 | |
| DB0UT-7 | 2026-09-04 08:32:31 | 47.11463 | 3.23263 | 115° | 33km/h | 17474m | 4.5m/s | 0°C | 0% | 0hPa | 0V | 00:00:00 | 00:00:00 | 00:00:00 | |
| DB0UT-7 | 2026-09-04 08:32:01 | 47.11519 | 3.22907 | 98° | 38km/h | 17334m | 5.7m/s | 0°C | 0% | 0hPa | 0V | 00:00:00 | 00:00:00 | 00:00:00 | |
| DB0UT-7 | 2026-09-04 08:31:31 | 47.11546 | 3.22475 | 103° | 47km/h | 17196m | 3.5m/s | 0°C | 0% | 0hPa | 0V | 00:00:00 | 00:00:00 | 00:00:00 | |
| DB0UT-7 | 2026-09-04 08:31:01 | 47.11647 | 3.21962 | 93° | 47km/h | 17061m | 5.5m/s | 0°C | 0% | 0hPa | 0V | 00:00:00 | 00:00:00 | 00:00:00 | |
| DB0UT-7 | 2026-09-04 08:30:31 | 47.11695 | 3.21438 | 102° | 46km/h | 16925m | 2.5m/s | 0°C | 0% | 0hPa | 0V | 00:00:00 | 00:00:00 | 00:00:00 | |
| DB0ND-19 | 2026-09-04 08:30:30 | 47.11700 | 3.21406 | 101° | 44km/h | 16921m | 5.1m/s | -61.0°C | -1.0% | -1.0hPa | 0V | 00:00:00 | 00:00:00 | 00:00:00 | |
| DB0UT-7 | 2026-09-04 08:30:01 | 47.11728 | 3.20917 | 91° | 51km/h | 16788m | 4.9m/s | 0°C | 0% | 0hPa | 0V | 00:00:00 | 00:00:00 | 00:00:00 | |
| DB0ND-19 | 2026-09-04 08:29:59 | 47.11728 | 3.20867 | 94° | 44km/h | 16784m | 4.8m/s | -60.7°C | -1.0% | -1.0hPa | 0V | 00:00:00 | 00:00:00 | 00:00:00 | |
| DB0UT-7 | 2026-09-04 08:29:30 | 47.11731 | 3.20351 | 91° | 46km/h | 16654m | 4.1m/s | 0°C | 0% | 0hPa | 0V | 00:00:00 | 00:00:00 | 00:00:00 | |
| DB0ND-19 | 2026-09-04 08:29:28 | 47.11730 | 3.20239 | 85° | 51km/h | 16631m | 4.0m/s | -60.8°C | -1.0% | -1.0hPa | 0V | 00:00:00 | 00:00:00 | 00:00:00 | |
| DB0UT-7 | 2026-09-04 08:29:00 | 47.11702 | 3.19862 | 81° | 35km/h | 16520m | 4.6m/s | 0°C | 0% | 0hPa | 0V | 00:00:00 | 00:00:00 | 00:00:00 | |
| DB0ND-19 | 2026-09-04 08:28:57 | 47.11696 | 3.19812 | 81° | 31km/h | 16507m | 2.7m/s | -60.9°C | -1.0% | -1.0hPa | 0V | 00:00:00 | 00:00:00 | 00:00:00 | |
| DB0UT-7 | 2026-09-04 08:28:30 | 47.11655 | 3.19485 | 81° | 33km/h | 16388m | 5.4m/s | 0°C | 0% | 0hPa | 0V | 00:00:00 | 00:00:00 | 00:00:00 | |
| DB0ND-19 | 2026-09-04 08:28:26 | 47.11647 | 3.19418 | 85° | 33km/h | 16372m | 3.9m/s | -60.9°C | -1.0% | -1.0hPa | 0V | 00:00:00 | 00:00:00 | 00:00:00 | |
| DB0UT-7 | 2026-09-04 08:28:00 | 47.11640 | 3.19125 | 105° | 40km/h | 16257m | 4.0m/s | 0°C | 0% | 0hPa | 0V | 00:00:00 | 00:00:00 | 00:00:00 | |
| DB0ND-19 | 2026-09-04 08:27:55 | 47.11648 | 3.19050 | 100° | 37km/h | 16235m | 4.0m/s | -61.4°C | -1.0% | -1.0hPa | 0V | 00:00:00 | 00:00:00 | 00:00:00 | |
| DB0UT-7 | 2026-09-04 08:27:30 | 47.11699 | 3.18675 | 102° | 46km/h | 16121m | 3.9m/s | 0°C | 0% | 0hPa | 0V | 00:00:00 | 00:00:00 | 00:00:00 | |
| DB0UT-7 | 2026-09-04 08:27:00 | 47.11757 | 3.18180 | 95° | 40km/h | 15987m | 5.1m/s | 0°C | 0% | 0hPa | 0V | 00:00:00 | 00:00:00 | 00:00:00 | |
| DB0UT-7 | 2026-09-04 08:26:30 | 47.11777 | 3.17737 | 103° | 47km/h | 15854m | 4.5m/s | 0°C | 0% | 0hPa | 0V | 00:00:00 | 00:00:00 | 00:00:00 | |
| DB0UT-7 | 2026-09-04 08:26:00 | 47.11855 | 3.17227 | 107° | 46km/h | 15719m | 4.0m/s | 0°C | 0% | 0hPa | 0V | 00:00:00 | 00:00:00 | 00:00:00 | |
| DB0UT-7 | 2026-09-04 08:25:30 | 47.11939 | 3.16726 | 95° | 40km/h | 15577m | 4.2m/s | 0°C | 0% | 0hPa | 0V | 00:00:00 | 00:00:00 | 00:00:00 | |
| DB0UT-7 | 2026-09-04 08:25:00 | 47.11991 | 3.16279 | 106° | 46km/h | 15436m | 5.1m/s | 0°C | 0% | 0hPa | 0V | 00:00:00 | 00:00:00 | 00:00:00 | |
| DB0UT-7 | 2026-09-04 08:24:30 | 47.12060 | 3.15778 | 99° | 58km/h | 15301m | 5.0m/s | 0°C | 0% | 0hPa | 0V | 00:00:00 | 00:00:00 | 00:00:00 | |
| DB0ND-19 | 2026-09-04 08:24:18 | 47.12097 | 3.15495 | 102° | 62km/h | 15242m | 4.7m/s | -61.0°C | -1.0% | -1.0hPa | 0V | 00:00:00 | 00:00:00 | 00:00:00 | |
| DB0UT-7 | 2026-09-04 08:24:00 | 47.12125 | 3.15143 | 93° | 57km/h | 15162m | 3.5m/s | 0°C | 0% | 0hPa | 0V | 00:00:00 | 00:00:00 | 00:00:00 | |
| DB0UT-7 | 2026-09-04 08:23:30 | 47.12135 | 3.14522 | 97° | 58km/h | 15028m | 5.4m/s | 0°C | 0% | 0hPa | 0V | 00:00:00 | 00:00:00 | 00:00:00 | |
| DB0ND-19 | 2026-09-04 08:23:16 | 47.12161 | 3.14204 | 96° | 62km/h | 14965m | 5.0m/s | -62.9°C | -1.0% | -1.0hPa | 0V | 00:00:00 | 00:00:00 | 00:00:00 | |
| DB0UT-7 | 2026-09-04 08:23:00 | 47.12178 | 3.13864 | 95° | 64km/h | 14892m | 4.5m/s | 0°C | 0% | 0hPa | 0V | 00:00:00 | 00:00:00 | 00:00:00 | |
| DB0UT-7 | 2026-09-04 08:22:30 | 47.12239 | 3.13161 | 99° | 71km/h | 14755m | 3.7m/s | 0°C | 0% | 0hPa | 0V | 00:00:00 | 00:00:00 | 00:00:00 | |
| DB0ND-19 | 2026-09-04 08:22:14 | 47.12284 | 3.12678 | 99° | 71km/h | 14675m | 5.3m/s | -64.6°C | -1.0% | -1.0hPa | 0V | 00:00:00 | 00:00:00 | 00:00:00 | |
| DB0UT-7 | 2026-09-04 08:22:00 | 47.12310 | 3.12379 | 94° | 77km/h | 14622m | 4.1m/s | 0°C | 0% | 0hPa | 0V | 00:00:00 | 00:00:00 | 00:00:00 | |
| DB0UT-7 | 2026-09-04 08:21:30 | 47.12253 | 3.11544 | 83° | 62km/h | 14452m | 4.1m/s | 0°C | 0% | 0hPa | 0V | 00:00:00 | 00:00:00 | 00:00:00 | |
| DB0ND-19 | 2026-09-04 08:21:12 | 47.12238 | 3.11084 | 91° | 62km/h | 14409m | 4.4m/s | -66.8°C | -1.0% | -1.0hPa | 0V | 00:00:00 | 00:00:00 | 00:00:00 | |
| DB0ND-19 | 2026-09-04 08:20:41 | 47.12277 | 3.10366 | 96° | 64km/h | 14273m | 4.9m/s | -67.1°C | -1.0% | -1.0hPa | 0V | 00:00:00 | 00:00:00 | 00:00:00 | |
| DB0UT-7 | 2026-09-04 08:20:22 | 47.12300 | 3.09921 | 91° | 68km/h | 14190m | 3.2m/s | 0°C | 0% | 0hPa | 0V | 00:00:00 | 00:00:00 | 00:00:00 | |
| DB0UT-7 | 2026-09-04 08:19:52 | 47.12301 | 3.09174 | 87° | 71km/h | 14058m | 3.6m/s | 0°C | 0% | 0hPa | 0V | 00:00:00 | 00:00:00 | 00:00:00 | |
| DB0UT-7 | 2026-09-04 08:19:22 | 47.12280 | 3.08375 | 89° | 78km/h | 13926m | 4.5m/s | 0°C | 0% | 0hPa | 0V | 00:00:00 | 00:00:00 | 00:00:00 | |
| DB0ND-19 | 2026-09-04 08:19:07 | 47.12268 | 3.07887 | 86° | 80km/h | 13857m | 4.1m/s | -67.2°C | -1.0% | -1.0hPa | 0V | 00:00:00 | 00:00:00 | 00:00:00 | |
| DB0UT-7 | 2026-09-04 08:18:52 | 47.12238 | 3.07489 | 85° | 77km/h | 13798m | 4.1m/s | 0°C | 0% | 0hPa | 0V | 00:00:00 | 00:00:00 | 00:00:00 | |
| DB0UT-7 | 2026-09-04 08:18:22 | 47.12175 | 3.06641 | 84° | 73km/h | 13670m | 5.0m/s | 0°C | 0% | 0hPa | 0V | 00:00:00 | 00:00:00 | 00:00:00 | |
| DB0ND-19 | 2026-09-04 08:18:05 | 47.12155 | 3.06144 | 87° | 71km/h | 13593m | 4.8m/s | -66.2°C | -1.0% | -1.0hPa | 0V | 00:00:00 | 00:00:00 | 00:00:00 | |
| DB0UT-7 | 2026-09-04 08:17:52 | 47.12145 | 3.05843 | 90° | 77km/h | 13544m | 4.2m/s | 0°C | 0% | 0hPa | 0V | 00:00:00 | 00:00:00 | 00:00:00 | |
| DB0UT-7 | 2026-09-04 08:17:22 | 47.12109 | 3.04999 | 84° | 77km/h | 13421m | 3.8m/s | 0°C | 0% | 0hPa | 0V | 00:00:00 | 00:00:00 | 00:00:00 | |
| DB0UT-7 | 2026-09-04 08:16:52 | 47.12054 | 3.04153 | 86° | 73km/h | 13296m | 3.4m/s | 0°C | 0% | 0hPa | 0V | 00:00:00 | 00:00:00 | 00:00:00 | |
| DB0UT-7 | 2026-09-04 08:16:22 | 47.12013 | 3.03338 | 84° | 71km/h | 13174m | 4.0m/s | 0°C | 0% | 0hPa | 0V | 00:00:00 | 00:00:00 | 00:00:00 | |
| DB0UT-7 | 2026-09-04 08:15:52 | 47.11984 | 3.02536 | 87° | 71km/h | 13051m | 3.8m/s | 0°C | 0% | 0hPa | 0V | 00:00:00 | 00:00:00 | 00:00:00 | |
| DB0UT-7 | 2026-09-04 08:15:22 | 47.11971 | 3.01740 | 92° | 73km/h | 12926m | 4.4m/s | 0°C | 0% | 0hPa | 0V | 00:00:00 | 00:00:00 | 00:00:00 | |
| DB0UT-7 | 2026-09-04 08:14:52 | 47.11960 | 3.00925 | 90° | 73km/h | 12807m | 5.3m/s | 0°C | 0% | 0hPa | 0V | 00:00:00 | 00:00:00 | 00:00:00 | |
| DB0UT-7 | 2026-09-04 08:14:18 | 47.11934 | 2.99997 | 91° | 77km/h | 12660m | 3.4m/s | 0°C | 0% | 0hPa | 0V | 00:00:00 | 00:00:00 | 00:00:00 | |
| DB0UT-7 | 2026-09-04 08:13:48 | 47.11921 | 2.99154 | 87° | 77km/h | 12533m | 2.9m/s | 0°C | 0% | 0hPa | 0V | 00:00:00 | 00:00:00 | 00:00:00 | |
| DB0UT-7 | 2026-09-04 08:13:18 | 47.11898 | 2.98308 | 88° | 75km/h | 12405m | 5.1m/s | 0°C | 0% | 0hPa | 0V | 00:00:00 | 00:00:00 | 00:00:00 | |
| DB0UT-7 | 2026-09-04 08:12:48 | 47.11870 | 2.97484 | 88° | 77km/h | 12277m | 3.7m/s | 0°C | 0% | 0hPa | 0V | 00:00:00 | 00:00:00 | 00:00:00 | |
| DB0UT-7 | 2026-09-04 08:12:18 | 47.11823 | 2.96630 | 85° | 75km/h | 12144m | 4.6m/s | 0°C | 0% | 0hPa | 0V | 00:00:00 | 00:00:00 | 00:00:00 | |
| DB0UT-7 | 2026-09-04 08:11:48 | 47.11776 | 2.95798 | 85° | 71km/h | 12011m | 4.6m/s | 0°C | 0% | 0hPa | 0V | 00:00:00 | 00:00:00 | 00:00:00 | |
| DB0UT-7 | 2026-09-04 08:11:17 | 47.11730 | 2.94979 | 84° | 71km/h | 11870m | 3.1m/s | 0°C | 0% | 0hPa | 0V | 00:00:00 | 00:00:00 | 00:00:00 | |
| DB0UT-7 | 2026-09-04 08:10:47 | 47.11673 | 2.94190 | 86° | 73km/h | 11729m | 4.4m/s | 0°C | 0% | 0hPa | 0V | 00:00:00 | 00:00:00 | 00:00:00 | |
| DB0UT-7 | 2026-09-04 08:10:17 | 47.11621 | 2.93387 | 85° | 71km/h | 11597m | 5.6m/s | 0°C | 0% | 0hPa | 0V | 00:00:00 | 00:00:00 | 00:00:00 | |
| DB0UT-7 | 2026-09-04 08:09:47 | 47.11568 | 2.92586 | 85° | 69km/h | 11462m | 4.1m/s | 0°C | 0% | 0hPa | 0V | 00:00:00 | 00:00:00 | 00:00:00 | |
| DB0UT-7 | 2026-09-04 08:09:17 | 47.11512 | 2.91814 | 86° | 69km/h | 11328m | 4.7m/s | 0°C | 0% | 0hPa | 0V | 00:00:00 | 00:00:00 | 00:00:00 | |
| DB0UT-7 | 2026-09-04 08:08:47 | 47.11463 | 2.91049 | 84° | 66km/h | 11196m | 3.6m/s | 0°C | 0% | 0hPa | 0V | 00:00:00 | 00:00:00 | 00:00:00 | |
| DB0UT-7 | 2026-09-04 08:08:17 | 47.11406 | 2.90311 | 83° | 66km/h | 11065m | 4.4m/s | 0°C | 0% | 0hPa | 0V | 00:00:00 | 00:00:00 | 00:00:00 | |
| DB0UT-7 | 2026-09-04 08:07:47 | 47.11342 | 2.89582 | 82° | 66km/h | 10933m | 4.1m/s | 0°C | 0% | 0hPa | 0V | 00:00:00 | 00:00:00 | 00:00:00 | |
| DB0UT-7 | 2026-09-04 08:07:17 | 47.11247 | 2.88860 | 82° | 66km/h | 10805m | 5.2m/s | 0°C | 0% | 0hPa | 0V | 00:00:00 | 00:00:00 | 00:00:00 | |
| DB0UT-7 | 2026-09-04 08:06:47 | 47.11140 | 2.88135 | 79° | 66km/h | 10677m | 5.3m/s | 0°C | 0% | 0hPa | 0V | 00:00:00 | 00:00:00 | 00:00:00 | |
| DB0UT-7 | 2026-09-04 08:06:17 | 47.11047 | 2.87408 | 79° | 69km/h | 10551m | 3.7m/s | 0°C | 0% | 0hPa | 0V | 00:00:00 | 00:00:00 | 00:00:00 | |
| DB0UT-7 | 2026-09-04 08:05:44 | 47.10934 | 2.86584 | 76° | 62km/h | 10411m | 3.0m/s | 0°C | 0% | 0hPa | 0V | 00:00:00 | 00:00:00 | 00:00:00 | |
| DB0UT-7 | 2026-09-04 08:05:13 | 47.10831 | 2.85884 | 81° | 62km/h | 10278m | 3.6m/s | 0°C | 0% | 0hPa | 0V | 00:00:00 | 00:00:00 | 00:00:00 | |
| DB0UT-7 | 2026-09-04 08:04:43 | 47.10735 | 2.85218 | 79° | 68km/h | 10147m | 5.0m/s | 0°C | 0% | 0hPa | 0V | 00:00:00 | 00:00:00 | 00:00:00 | |
| DB0UT-7 | 2026-09-04 08:03:43 | 47.10484 | 2.83731 | 76° | 68km/h | 9883m | 4.2m/s | 0°C | 0% | 0hPa | 0V | 00:00:00 | 00:00:00 | 00:00:00 | |
| DB0UT-7 | 2026-09-04 08:03:13 | 47.10353 | 2.82999 | 78° | 68km/h | 9758m | 4.4m/s | 0°C | 0% | 0hPa | 0V | 00:00:00 | 00:00:00 | 00:00:00 | |
| DB0UT-7 | 2026-09-04 08:02:43 | 47.10239 | 2.82273 | 79° | 68km/h | 9632m | 2.8m/s | 0°C | 0% | 0hPa | 0V | 00:00:00 | 00:00:00 | 00:00:00 | |
| DB0UT-7 | 2026-09-04 08:02:13 | 47.10137 | 2.81544 | 79° | 69km/h | 9480m | 5.2m/s | 0°C | 0% | 0hPa | 0V | 00:00:00 | 00:00:00 | 00:00:00 | |
| DB0UT-7 | 2026-09-04 08:01:36 | 47.10015 | 2.80612 | 81° | 69km/h | 9345m | 4.9m/s | 0°C | 0% | 0hPa | 0V | 00:00:00 | 00:00:00 | 00:00:00 | |
| DB0UT-7 | 2026-09-04 08:01:06 | 47.09927 | 2.79845 | 82° | 69km/h | 9220m | 4.1m/s | 0°C | 0% | 0hPa | 0V | 00:00:00 | 00:00:00 | 00:00:00 | |
| DB0UT-7 | 2026-09-04 08:00:36 | 47.09822 | 2.79081 | 79° | 71km/h | 9091m | 3.5m/s | 0°C | 0% | 0hPa | 0V | 00:00:00 | 00:00:00 | 00:00:00 | |
| DB0UT-7 | 2026-09-04 08:00:07 | 47.09738 | 2.78307 | 82° | 73km/h | 8969m | 3.4m/s | 0°C | 0% | 0hPa | 0V | 00:00:00 | 00:00:00 | 00:00:00 | |
| DB0UT-7 | 2026-09-04 07:59:36 | 47.09674 | 2.77504 | 86° | 69km/h | 8841m | 2.9m/s | 0°C | 0% | 0hPa | 0V | 00:00:00 | 00:00:00 | 00:00:00 | |
| DB0UT-7 | 2026-09-04 07:58:48 | 47.09661 | 2.76236 | 92° | 68km/h | 8640m | 3.6m/s | 0°C | 0% | 0hPa | 0V | 00:00:00 | 00:00:00 | 00:00:00 | |
| DB0UT-7 | 2026-09-04 07:58:18 | 47.09692 | 2.75494 | 96° | 66km/h | 8517m | 4.4m/s | 0°C | 0% | 0hPa | 0V | 00:00:00 | 00:00:00 | 00:00:00 |